19:50
Airports
History
Links
Donate
Help keep this website running!
PayPal
Bitcoin
Information on this page is community maintained and may be outdated or inaccurate and is intended for reference only or PC simulator navigating!
Always use approved charts for navigating.
UHMM
Magadan Sokol
Magadan Sokol (UHMM)
Magadan, Magadanskaya oblast, Russian Federation (685918)
(C)
Lat/Lng:59° 54' 39.56" N / 150° 43' 13.58" E
59.910989 / 150.720439
Elevation:574'ft 175mMSL
ID / ICAO:UHMM
Runways:1
Longest:(10-28) 3,444.0m 11,299ft Concrete
Controlled:Yes
Distance To
Airport ID:
Airport Radio Frequencies
ATIS: 127.4
Tower: 120.8
Approach: 124, 126.9, 129
Nearby VORs <50NM
Nearby NDBs
METARUpdated 03-24-17 19:00 GMT
Altimeter: 29.91
Visibility: 6.2 statute miles
Wind: 0 knots (000°)
Temp: -19°c -2°f
Humidity: 84.1%

METAR: UHMM 241900Z 00000MPS 9999 NSC M19/M21 Q1013 RMK QFE745

(Powered by phpweather)
Runway 10 / 28
Dimensions:3444 x 59.1m 11299' x 194'ft
Surface:Concrete
Edge Lights:High intensity
Runway 10 [A]Runway 28 [B]
Heading:093°TH 273°TH
Lat:
Lng:
59° 54' 42.7"N
150° 41' 22.59"E
59° 54' 36.42"N
150° 45' 4.57"E
ALS:ALSF-IISALS
TDZ:Yes
Google Map
Nearby Airports
(U) Palana 326.3 NM
UHPL E 100°
4 Oymyakon 338.2 NM
UEMJ NW 312°
(C) Ust-Nera 402.8 NM
UEMT NW 322°
(U) Zyryanka 403.0 NM
UESU N
4 Uka 425.1 NM
UHPU ESE 108°
(U) Kozyrevsk 426.1 NM
UHPO SE 128°
(U) Klyuchi 443.5 NM
UHPY SE 124°
VFR Chart
Flight Planning at SkyVector.com